Marysville, OH

4:50 PM EDT on September 26, 2017 (GMT -0400)
Marysville

Weather History for KMRT - April, 2014

Change the Weather History Date:

Tuesday, April 22, 2014

  Actual Average (KDLZ) Record (KDLZ)
Temperature  
Mean Temperature 54 °F -  
Max Temperature 63 °F 62 °F 87 °F (1985)
Min Temperature 43 °F 41 °F 21 °F (1936)
Degree Days  
Heating Degree Days 12    
Growing Degree Days 4 (Base 50)    
Moisture  
Dew Point 43 °F    
Average Humidity 62    
Maximum Humidity 89    
Minimum Humidity 29    
Precipitation  
Precipitation 0.01 in - - ()
Sea Level Pressure  
Sea Level Pressure 29.81 in    
Wind  
Wind Speed 11 mph (NW)    
Max Wind Speed 22 mph    
Max Gust Speed 30 mph    
Visibility 8 miles    
Events      
Averages and records for this station are not official NWS values.
T = Trace of Precipitation, MM = Missing Value Source: NWS Daily Summary

Daily Weather History Graph

Daily Weather History Graph

Search for Another Location

Airport or City:

Trip Planner

Search our weather history database for the weather conditions in past years. The results will help you decide how hot, cold, wet, or windy it might be!

Date:

Astronomy

Apr. 22, 2014 Rise Set
Actual Time 6:45 AM EDT 8:19 PM EDT
Civil Twilight 6:16 AM EDT 8:48 PM EDT
Nautical Twilight 5:41 AM EDT 9:22 PM EDT
Astronomical Twilight 5:05 AM EDT 9:59 PM EDT
Moon 2:33 AM EDT (4/22) 1:19 PM EDT (4/22)
Length of Visible Light 14h 31m
Length of Day
13h 34m
Last Quarter, 46% of the Moon is Illuminated
Apr 22
Last Quarter
Apr 29
New
May 6
First Quarter
May 14
Full
May 21
Last Quarter

Hourly Weather History & Observations

Time (EDT) Temp. Windchill Dew Point Humidity Pressure Visibility Wind Dir Wind Speed Gust Speed Precip Events Conditions
12:14 AM 63.0 °F - 47.5 °F 57% 29.83 in 10.0 mi NW 5.8 mph - N/A   Overcast
12:34 AM 61.9 °F - 50.2 °F 65% 29.83 in 10.0 mi WNW 8.1 mph - N/A   Overcast
12:54 AM 61.0 °F - 50.4 °F 68% 29.83 in 10.0 mi WNW 11.5 mph - N/A   Overcast
1:14 AM 60.8 °F - 50.4 °F 68% 29.82 in 10.0 mi WNW 6.9 mph - N/A   Overcast
1:34 AM 60.3 °F - 50.2 °F 69% 29.83 in 10.0 mi WNW 8.1 mph - N/A   Overcast
1:53 AM 59.7 °F - 50.4 °F 71% 29.82 in 10.0 mi WNW 9.2 mph - N/A   Overcast
2:14 AM 59.0 °F - 50.9 °F 74% 29.80 in 10.0 mi WNW 4.6 mph - N/A   Overcast
2:34 AM 57.7 °F - 50.9 °F 78% 29.80 in 10.0 mi West 4.6 mph - N/A   Overcast
2:53 AM 57.9 °F - 51.3 °F 78% 29.79 in 10.0 mi West 6.9 mph - N/A   Overcast
3:14 AM 57.7 °F - 51.4 °F 79% 29.79 in 10.0 mi WSW 5.8 mph - N/A   Overcast
3:34 AM 57.7 °F - 51.8 °F 81% 29.78 in 10.0 mi WSW 6.9 mph - N/A   Overcast
3:53 AM 57.2 °F - 52.3 °F 84% 29.78 in 3.0 mi West 6.9 mph - 0.01 in   Overcast
4:14 AM 56.7 °F - 53.1 °F 88% 29.77 in 5.0 mi SW 6.9 mph - N/A   Overcast
4:34 AM 56.8 °F - 53.6 °F 89% 29.77 in 5.0 mi WSW 9.2 mph - N/A   Overcast
4:53 AM 57.2 °F - 53.6 °F 88% 29.76 in 7.0 mi WSW 8.1 mph - N/A   Overcast
5:14 AM 57.2 °F - 53.2 °F 87% 29.76 in 7.0 mi WSW 8.1 mph - N/A   Overcast
5:34 AM 57.2 °F - 53.2 °F 87% 29.75 in 5.0 mi WSW 8.1 mph - N/A   Overcast
5:53 AM 57.2 °F - 53.2 °F 87% 29.75 in 5.0 mi WSW 8.1 mph - N/A   Overcast
6:14 AM 57.2 °F - 53.2 °F 87% 29.75 in 5.0 mi West 8.1 mph - N/A   Overcast
6:34 AM 57.4 °F - 53.4 °F 87% 29.75 in 5.0 mi West 8.1 mph - N/A   Overcast
6:53 AM 57.2 °F - 53.2 °F 87% 29.75 in 4.0 mi West 6.9 mph - N/A   Overcast
7:14 AM 57.2 °F - 53.2 °F 87% 29.75 in 4.0 mi West 8.1 mph - N/A   Overcast
7:34 AM 57.2 °F - 53.6 °F 88% 29.75 in 3.0 mi WNW 9.2 mph - N/A   Overcast
7:53 AM 57.2 °F - 53.4 °F 87% 29.76 in 4.0 mi WNW 9.2 mph - N/A   Overcast
8:14 AM 57.7 °F - 53.8 °F 87% 29.76 in 4.0 mi WNW 11.5 mph - N/A   Overcast
8:34 AM 57.6 °F - 53.8 °F 87% 29.77 in 2.5 mi WNW 11.5 mph - N/A   Overcast
8:53 AM 57.7 °F - 54.5 °F 89% 29.77 in 3.0 mi WNW 6.9 mph - N/A   Overcast
9:14 AM 58.8 °F - 54.7 °F 86% 29.76 in 5.0 mi West 8.1 mph - N/A   Overcast
9:34 AM 61.2 °F - 55.6 °F 82% 29.76 in 7.0 mi WNW 9.2 mph - N/A   Mostly Cloudy
9:53 AM 60.4 °F - 53.6 °F 78% 29.76 in 7.0 mi NW 15.0 mph 21.9 mph N/A   Mostly Cloudy
10:14 AM 60.1 °F - 53.1 °F 78% 29.77 in 7.0 mi NW 11.5 mph 18.4 mph N/A   Overcast
10:34 AM 61.7 °F - 52.9 °F 73% 29.77 in 7.0 mi NNW 11.5 mph 16.1 mph N/A   Overcast
10:53 AM 60.8 °F - 52.0 °F 73% 29.77 in 7.0 mi WNW 17.3 mph 20.7 mph N/A   Overcast
11:14 AM 62.2 °F - 50.7 °F 66% 29.77 in 10.0 mi NW 13.8 mph 19.6 mph N/A   Overcast
11:34 AM 63.7 °F - 49.3 °F 59% 29.78 in 10.0 mi NW 12.7 mph 21.9 mph N/A   Mostly Cloudy
11:53 AM 63.3 °F - 50.9 °F 64% 29.78 in 10.0 mi NW 16.1 mph 23.0 mph N/A   Scattered Clouds
12:14 PM 60.3 °F - 48.6 °F 65% 29.79 in 10.0 mi NNW 13.8 mph - N/A   Scattered Clouds
12:34 PM 59.4 °F - 48.0 °F 66% 29.80 in 7.0 mi NNW 18.4 mph 23.0 mph N/A   Scattered Clouds
12:53 PM 60.1 °F - 46.8 °F 61% 29.79 in 10.0 mi NNW 13.8 mph 21.9 mph N/A   Scattered Clouds
1:14 PM 61.2 °F - 46.0 °F 58% 29.79 in 10.0 mi WNW 15.0 mph 25.3 mph N/A   Scattered Clouds
1:34 PM 62.2 °F - 44.6 °F 52% 29.79 in 10.0 mi NW 17.3 mph 25.3 mph N/A   Scattered Clouds
1:54 PM 62.2 °F - 41.7 °F 47% 29.78 in 10.0 mi NW 15.0 mph - N/A   Scattered Clouds
2:14 PM 63.7 °F - 42.1 °F 45% 29.78 in 10.0 mi NW 15.0 mph 21.9 mph N/A   Clear
2:34 PM 63.1 °F - 35.1 °F 35% 29.77 in 10.0 mi NW 17.3 mph 25.3 mph N/A   Clear
2:54 PM 63.9 °F - 34.9 °F 34% 29.78 in 10.0 mi NW 19.6 mph 25.3 mph N/A   Clear
3:14 PM 63.7 °F - 32.7 °F 31% 29.77 in 10.0 mi NW 15.0 mph 26.5 mph N/A   Clear
3:34 PM 63.5 °F - 30.2 °F 29% 29.77 in 10.0 mi NW 17.3 mph 25.3 mph N/A   Clear
3:54 PM 62.6 °F - 30.7 °F 30% 29.78 in 10.0 mi NW 17.3 mph 29.9 mph N/A   Clear
4:14 PM 62.4 °F - 31.8 °F 32% 29.78 in 10.0 mi NNW 17.3 mph 25.3 mph N/A   Clear
4:34 PM 62.2 °F - 32.2 °F 32% 29.78 in 10.0 mi NW 13.8 mph 23.0 mph N/A   Clear
4:54 PM 61.5 °F - 29.7 °F 30% 29.78 in 10.0 mi NW 16.1 mph 21.9 mph N/A   Clear
5:14 PM 60.6 °F - 29.3 °F 31% 29.79 in 10.0 mi NW 18.4 mph 27.6 mph N/A   Clear
5:33 PM 59.9 °F - 30.0 °F 32% 29.79 in 10.0 mi NNW 21.9 mph 28.8 mph N/A   Clear
5:54 PM 59.0 °F - 28.2 °F 31% 29.80 in 10.0 mi NW 18.4 mph 26.5 mph N/A   Clear
6:14 PM 58.8 °F - 30.0 °F 34% 29.81 in 10.0 mi NW 18.4 mph 26.5 mph N/A   Clear
6:33 PM 57.7 °F - 30.2 °F 35% 29.82 in 10.0 mi NNW 20.7 mph - N/A   Clear
6:54 PM 55.9 °F - 30.4 °F 38% 29.83 in 10.0 mi NNW 21.9 mph 27.6 mph N/A   Clear
7:14 PM 54.9 °F - 29.7 °F 38% 29.84 in 10.0 mi NNW 21.9 mph 25.3 mph N/A   Clear
7:33 PM 53.4 °F - 29.5 °F 40% 29.85 in 10.0 mi NNW 16.1 mph - N/A   Clear
7:54 PM 52.3 °F - 30.6 °F 43% 29.86 in 10.0 mi NNW 18.4 mph 24.2 mph N/A   Clear
8:14 PM 51.1 °F - 30.9 °F 46% 29.87 in 10.0 mi NNW 13.8 mph 24.2 mph N/A   Clear
8:33 PM 50.4 °F - 30.9 °F 47% 29.88 in 10.0 mi NW 18.4 mph 25.3 mph N/A   Clear
8:54 PM 50.0 °F - 31.1 °F 48% 29.88 in 10.0 mi NW 13.8 mph 20.7 mph N/A   Mostly Cloudy
9:14 PM 49.8 °F - 31.3 °F 49% 29.89 in 10.0 mi NW 11.5 mph 19.6 mph N/A   Overcast
9:33 PM 49.1 °F - 31.5 °F 51% 29.90 in 10.0 mi NW 11.5 mph 21.9 mph N/A   Overcast
9:54 PM 47.7 °F - 30.7 °F 52% 29.90 in 10.0 mi NW 15.0 mph 20.7 mph N/A   Mostly Cloudy
10:14 PM 46.8 °F - 30.7 °F 54% 29.92 in 10.0 mi NNW 13.8 mph 23.0 mph N/A   Scattered Clouds
10:33 PM 46.4 °F 41.1 °F 30.2 °F 53% 29.92 in 10.0 mi NW 11.5 mph 18.4 mph N/A   Mostly Cloudy
10:54 PM 45.5 °F 39.9 °F 30.6 °F 56% 29.92 in 10.0 mi NNW 11.5 mph 18.4 mph N/A   Scattered Clouds
11:13 PM 44.8 °F 39.0 °F 30.6 °F 57% 29.92 in 10.0 mi NNW 11.5 mph - N/A   Clear
11:34 PM 44.4 °F 37.9 °F 30.9 °F 59% 29.93 in 10.0 mi North 13.8 mph 18.4 mph N/A   Clear
11:54 PM 43.7 °F 38.1 °F 31.1 °F 61% 29.93 in 10.0 mi North 10.4 mph 17.3 mph N/A   Clear